West Bush, New York
Current Conditions -  °F | °C
As of 12:55 PM on Saturday 25 Oct 2014 (Local Time) from KNY0 Reporting Station
Clear Clear  
Wind Chill: 54°   Ceiling: Unl
Heat Index: 54°   Visibility: 10mi
Dew Point: 44°   Wind: 7mph
Humidity: 70%   Direction: 250°WSW
Pressure: 29.71"   Gusts: NA
Location:  43.1204°N, 74.3629°W
Report Text: KNY0 251655Z AUTO 25006KT 10SM CLR 12/07 A2971 RMK AO2 T01220068
Loading
Personal Weather Stations






























Interactive Weather Map
Tropical Storm Tracking
New forecast layout! Learn more

10-Day Weather Forecast

Advertisements
Track Severe Weather on mobile